createdAt,value
2023-11-14T00:01:24.581Z,13.87
2023-11-14T00:04:14.212Z,10.80
2023-11-14T00:07:03.825Z,16.20
2023-11-14T00:09:53.524Z,13.60
2023-11-14T00:12:41.800Z,11.17
2023-11-14T00:15:30.087Z,10.93
2023-11-14T00:18:18.323Z,8.70
2023-11-14T00:21:06.582Z,8.70
2023-11-14T00:23:55.480Z,10.23
2023-11-14T00:26:45.149Z,11.27
2023-11-14T00:29:33.444Z,13.67
2023-11-14T00:32:21.561Z,11.87
2023-11-14T00:35:10.173Z,13.30
2023-11-14T00:37:58.276Z,10.73
2023-11-14T00:40:46.649Z,7.93
2023-11-14T00:43:36.102Z,10.03
2023-11-14T00:46:24.272Z,14.43
2023-11-14T00:49:12.394Z,14.40
2023-11-14T00:52:00.470Z,10.37
2023-11-14T00:54:48.577Z,13.30
2023-11-14T00:57:36.711Z,8.90
2023-11-14T01:00:27.689Z,14.43
2023-11-14T01:03:16.240Z,11.93
2023-11-14T01:06:06.024Z,13.27
2023-11-14T01:08:54.561Z,8.63
2023-11-14T01:11:42.869Z,8.90
2023-11-14T01:14:31.207Z,12.40
2023-11-14T01:17:22.517Z,13.87
2023-11-14T01:20:14.212Z,13.50
2023-11-14T01:23:02.564Z,17.07
2023-11-14T01:25:50.875Z,10.37
2023-11-14T01:28:39.393Z,16.57
2023-11-14T01:31:27.508Z,12.63
2023-11-14T01:34:16.948Z,11.95
2023-11-14T01:37:05.829Z,13.30
2023-11-14T01:39:53.860Z,11.00
2023-11-14T01:42:42.046Z,11.43
2023-11-14T01:45:30.144Z,14.67
2023-11-14T01:48:18.319Z,9.53
2023-11-14T01:51:08.601Z,12.37
2023-11-14T01:53:57.274Z,15.63
2023-11-14T01:56:46.315Z,15.00
2023-11-14T01:59:34.631Z,11.20
2023-11-14T02:02:22.986Z,10.73
2023-11-14T02:05:11.762Z,11.00
2023-11-14T02:08:01.648Z,16.50
2023-11-14T02:10:50.268Z,10.73
2023-11-14T02:13:38.839Z,9.47
2023-11-14T02:16:28.252Z,14.50
2023-11-14T02:19:16.570Z,9.63
2023-11-14T02:22:04.790Z,10.53
2023-11-14T02:24:56.624Z,13.30
2023-11-14T02:27:45.668Z,13.33
2023-11-14T02:30:34.502Z,12.90
2023-11-14T02:33:22.567Z,14.57
2023-11-14T02:36:11.156Z,10.47
2023-11-14T02:38:59.333Z,12.90
2023-11-14T02:41:48.795Z,12.17
2023-11-14T02:44:36.883Z,16.43
2023-11-14T02:47:25.755Z,10.13
2023-11-14T02:50:27.232Z,11.13
2023-11-14T02:53:15.298Z,13.90
2023-11-14T02:56:03.548Z,14.30
2023-11-14T02:58:53.000Z,15.47
2023-11-14T03:01:41.121Z,11.03
2023-11-14T03:04:29.137Z,12.07
2023-11-14T03:07:17.578Z,14.03
2023-11-14T03:10:06.219Z,11.00
2023-11-14T03:12:55.148Z,13.93
2023-11-14T03:15:44.757Z,17.93
2023-11-14T03:18:32.887Z,13.40
2023-11-14T03:21:21.010Z,12.80
2023-11-14T03:24:10.161Z,13.23
2023-11-14T03:26:58.293Z,15.00
2023-11-14T03:29:46.905Z,13.00
2023-11-14T03:32:37.251Z,17.47
2023-11-14T03:35:25.451Z,15.60
2023-11-14T03:38:13.598Z,15.37
2023-11-14T03:41:01.778Z,16.90
2023-11-14T03:43:49.956Z,16.20
2023-11-14T03:46:38.195Z,13.30
2023-11-14T03:49:27.731Z,14.13
2023-11-14T03:52:16.147Z,19.10
2023-11-14T03:55:04.244Z,18.47
2023-11-14T03:57:53.591Z,17.67
2023-11-14T04:00:41.726Z,15.75
2023-11-14T04:03:29.773Z,14.90
2023-11-14T04:06:19.561Z,14.20
2023-11-14T04:09:07.794Z,17.87
2023-11-14T04:11:55.909Z,17.60
2023-11-14T04:14:44.280Z,14.80
2023-11-14T04:17:32.608Z,14.70
2023-11-14T04:20:20.846Z,15.43
2023-11-14T04:23:10.310Z,13.77
2023-11-14T04:25:58.473Z,13.67
2023-11-14T04:28:46.598Z,16.40
2023-11-14T04:31:34.786Z,11.67
2023-11-14T04:34:22.870Z,16.03
2023-11-14T04:37:11.387Z,14.10
2023-11-14T04:40:00.942Z,12.73
2023-11-14T04:42:49.110Z,13.57
2023-11-14T04:45:37.149Z,18.37
2023-11-14T04:48:25.773Z,13.13
2023-11-14T04:51:13.900Z,14.27
2023-11-14T04:54:01.961Z,11.07
2023-11-14T04:56:51.468Z,16.43
2023-11-14T04:59:39.690Z,12.70
2023-11-14T05:02:29.365Z,12.40
2023-11-14T05:05:17.743Z,14.17
2023-11-14T05:08:06.217Z,14.90
2023-11-14T05:10:54.367Z,13.30
2023-11-14T05:13:43.991Z,13.13
2023-11-14T05:16:32.165Z,18.43
2023-11-14T05:19:20.281Z,12.33
2023-11-14T05:22:08.429Z,13.83
2023-11-14T05:24:56.532Z,12.13
2023-11-14T05:27:44.639Z,16.50
2023-11-14T05:30:34.058Z,15.73
2023-11-14T05:33:22.423Z,13.37
2023-11-14T05:36:11.174Z,12.77
2023-11-14T05:38:59.942Z,14.27
2023-11-14T05:41:48.172Z,16.47
2023-11-14T05:44:36.853Z,12.57
2023-11-14T05:47:26.503Z,14.70
2023-11-14T05:50:15.203Z,13.93
2023-11-14T05:53:03.401Z,13.13
2023-11-14T05:55:51.550Z,11.87
2023-11-14T05:58:39.719Z,14.90
2023-11-14T06:01:28.098Z,14.30
2023-11-14T06:04:17.739Z,13.40
2023-11-14T06:07:05.983Z,16.60
2023-11-14T06:09:54.129Z,13.53
2023-11-14T06:12:42.895Z,15.33
2023-11-14T06:15:31.789Z,10.87
2023-11-14T06:18:20.569Z,15.33
2023-11-14T06:21:11.712Z,10.83
2023-11-14T06:23:59.783Z,11.00
2023-11-14T06:26:47.803Z,15.97
2023-11-14T06:29:35.921Z,13.80
2023-11-14T06:32:24.051Z,18.27
2023-11-14T06:35:12.279Z,14.77
2023-11-14T06:38:01.769Z,13.90
2023-11-14T06:40:49.860Z,9.13
2023-11-14T06:43:38.086Z,12.30
2023-11-14T06:46:26.190Z,9.63
2023-11-14T06:49:14.493Z,13.03
2023-11-14T06:52:02.585Z,13.53
2023-11-14T06:54:52.173Z,11.63
2023-11-14T06:57:41.760Z,16.13
2023-11-14T07:00:29.847Z,11.37
2023-11-14T07:03:17.947Z,10.30
2023-11-14T07:06:06.697Z,10.70
2023-11-14T07:08:55.238Z,12.30
2023-11-14T07:11:45.824Z,7.03
2023-11-14T07:14:33.953Z,9.83
2023-11-14T07:17:23.119Z,10.13
2023-11-14T07:20:13.349Z,10.53
2023-11-14T07:23:01.554Z,12.20
2023-11-14T07:25:49.907Z,14.53
2023-11-14T07:28:42.125Z,17.10
2023-11-14T07:31:30.264Z,13.17
2023-11-14T07:34:18.481Z,14.37
2023-11-14T07:37:06.614Z,14.47
2023-11-14T07:39:57.459Z,9.00
2023-11-14T07:42:45.801Z,12.33
2023-11-14T07:45:36.101Z,11.33
2023-11-14T07:48:24.684Z,12.37
2023-11-14T07:51:12.994Z,11.57
2023-11-14T07:54:01.116Z,11.87
2023-11-14T07:56:49.412Z,9.93
2023-11-14T07:59:37.454Z,13.73
2023-11-14T08:02:26.968Z,15.17
2023-11-14T08:05:15.760Z,14.03
2023-11-14T08:08:03.908Z,11.03
2023-11-14T08:10:52.052Z,10.83
2023-11-14T08:13:40.626Z,10.80
2023-11-14T08:16:28.831Z,9.40
2023-11-14T08:19:18.319Z,14.00
2023-11-14T08:22:07.743Z,9.13
2023-11-14T08:24:55.905Z,8.00
2023-11-14T08:27:44.363Z,14.70
2023-11-14T08:30:32.512Z,9.70
2023-11-14T08:33:20.989Z,15.07
2023-11-14T08:36:11.348Z,13.10
2023-11-14T08:38:59.564Z,12.00
2023-11-14T08:41:47.598Z,12.70
2023-11-14T08:44:35.705Z,11.73
2023-11-14T08:47:24.004Z,15.73
2023-11-14T08:50:14.071Z,14.40
2023-11-14T08:53:04.099Z,13.43
2023-11-14T08:55:53.516Z,13.73
2023-11-14T08:58:41.753Z,13.03
2023-11-14T09:01:29.947Z,15.70
2023-11-14T09:04:19.238Z,13.90
2023-11-14T09:07:07.488Z,14.83
2023-11-14T09:09:57.267Z,9.73
2023-11-14T09:12:45.504Z,16.73
2023-11-14T09:15:33.589Z,17.13
2023-11-14T09:18:21.775Z,14.33
2023-11-14T09:21:10.028Z,17.03
2023-11-14T09:23:58.250Z,10.10
2023-11-14T09:26:47.728Z,15.63
2023-11-14T09:29:35.835Z,16.60
2023-11-14T09:32:24.897Z,13.70
2023-11-14T09:35:13.985Z,9.00
2023-11-14T09:38:02.384Z,15.17
2023-11-14T09:40:50.637Z,8.83
2023-11-14T09:43:41.772Z,16.50
2023-11-14T09:46:33.643Z,14.50
2023-11-14T09:49:21.897Z,13.53
2023-11-14T09:52:10.477Z,9.70
2023-11-14T09:54:59.783Z,13.73
2023-11-14T09:57:49.902Z,10.77
2023-11-14T10:00:39.772Z,13.73
2023-11-14T10:03:28.626Z,10.30
2023-11-14T10:06:16.886Z,9.63
2023-11-14T10:09:07.230Z,11.10
2023-11-14T10:12:12.774Z,13.03
2023-11-14T10:15:04.968Z,12.77
2023-11-14T10:17:54.550Z,10.20
2023-11-14T10:20:48.075Z,12.23
2023-11-14T10:23:40.626Z,12.73
2023-11-14T10:26:29.569Z,13.53
2023-11-14T10:29:19.862Z,14.80
2023-11-14T10:32:15.950Z,12.20
2023-11-14T10:35:18.802Z,11.50
2023-11-14T10:38:21.854Z,12.53
2023-11-14T10:41:11.228Z,11.90
2023-11-14T10:44:09.382Z,9.67
2023-11-14T10:47:00.039Z,12.20
2023-11-14T10:49:48.415Z,8.47
2023-11-14T10:52:38.881Z,9.03
2023-11-14T10:55:27.771Z,10.17
2023-11-14T10:58:16.124Z,8.07
2023-11-14T11:01:06.420Z,6.37
2023-11-14T11:03:56.368Z,9.37
2023-11-14T11:06:46.213Z,9.37
2023-11-14T11:09:35.701Z,6.40
2023-11-14T11:12:28.007Z,6.30
2023-11-14T11:15:16.601Z,7.97
2023-11-14T11:18:04.899Z,8.47
2023-11-14T11:20:53.221Z,4.70
2023-11-14T11:24:04.812Z,6.70
2023-11-14T11:27:13.479Z,5.63
2023-11-14T11:30:09.297Z,6.37
2023-11-14T11:32:59.631Z,5.57
2023-11-14T11:35:47.790Z,7.00
2023-11-14T11:38:35.826Z,4.73
2023-11-14T11:41:24.873Z,8.70
2023-11-14T11:44:14.788Z,5.93
2023-11-14T11:47:02.953Z,5.53
2023-11-14T11:49:51.160Z,7.73
2023-11-14T11:52:40.498Z,11.80
2023-11-14T11:55:29.015Z,7.23
2023-11-14T11:58:18.136Z,6.50
2023-11-14T12:01:10.854Z,6.90
2023-11-14T12:03:59.908Z,9.33
2023-11-14T12:06:48.530Z,9.97
2023-11-14T12:09:37.731Z,6.07
2023-11-14T12:12:25.848Z,12.97
2023-11-14T12:15:17.836Z,8.33
2023-11-14T12:18:07.556Z,7.83
2023-11-14T12:20:55.677Z,9.23
2023-11-14T12:23:43.959Z,11.97
2023-11-14T12:26:33.413Z,7.73
2023-11-14T12:29:21.536Z,6.63
2023-11-14T12:32:14.236Z,11.03
2023-11-14T12:35:04.582Z,6.93
2023-11-14T12:38:02.196Z,6.40
2023-11-14T12:40:53.372Z,8.30
2023-11-14T12:43:41.682Z,6.60
2023-11-14T12:46:31.270Z,8.47
2023-11-14T12:49:20.601Z,8.33
2023-11-14T12:52:12.322Z,5.90
2023-11-14T12:55:01.862Z,7.07
2023-11-14T12:57:50.507Z,6.27
2023-11-14T13:00:38.616Z,4.43
2023-11-14T13:03:26.669Z,6.00
2023-11-14T13:06:14.877Z,3.07
2023-11-14T13:09:05.219Z,3.33
2023-11-14T13:11:53.191Z,2.40
2023-11-14T13:14:42.174Z,3.33
2023-11-14T13:17:30.241Z,2.37
2023-11-14T13:20:18.444Z,3.83
2023-11-14T13:23:07.079Z,3.23
2023-11-14T13:25:56.622Z,3.07
2023-11-14T13:28:44.734Z,5.00
2023-11-14T13:31:32.782Z,5.13
2023-11-14T13:34:22.040Z,4.67
2023-11-14T13:37:22.844Z,4.97
2023-11-14T13:40:12.664Z,4.10
2023-11-14T13:43:02.043Z,3.87
2023-11-14T13:45:51.026Z,5.67
2023-11-14T13:48:39.108Z,8.90
2023-11-14T13:51:27.936Z,9.50
2023-11-14T13:54:18.172Z,14.03
2023-11-14T13:57:07.689Z,7.43
2023-11-14T13:59:57.408Z,6.20
2023-11-14T14:02:45.701Z,4.60
2023-11-14T14:05:33.951Z,5.30
2023-11-14T14:08:23.004Z,4.30
2023-11-14T14:11:12.243Z,3.30
2023-11-14T14:14:00.473Z,4.90
2023-11-14T14:16:50.800Z,3.90
2023-11-14T14:19:39.079Z,5.33
2023-11-14T14:22:27.325Z,4.73
2023-11-14T14:25:16.325Z,6.73
2023-11-14T14:28:04.457Z,4.03
2023-11-14T14:30:54.291Z,6.53
2023-11-14T14:33:43.789Z,7.17
2023-11-14T14:36:32.062Z,5.77
2023-11-14T14:39:20.230Z,3.43
2023-11-14T14:42:08.533Z,3.37
2023-11-14T14:44:56.644Z,2.80
2023-11-14T14:47:46.561Z,2.13
2023-11-14T14:50:36.655Z,4.70
2023-11-14T14:53:25.294Z,4.93
2023-11-14T14:56:13.812Z,5.13
2023-11-14T14:59:05.183Z,2.00
2023-11-14T15:01:57.560Z,4.10
2023-11-14T15:04:45.678Z,4.50
2023-11-14T15:07:35.349Z,4.80
2023-11-14T15:10:23.427Z,5.40
2023-11-14T15:13:11.905Z,4.10
2023-11-14T15:16:02.400Z,3.17
2023-11-14T15:18:51.615Z,5.07
2023-11-14T15:21:40.587Z,5.33
2023-11-14T15:24:31.687Z,1.87
2023-11-14T15:27:19.814Z,3.97
2023-11-14T15:30:09.532Z,3.77
2023-11-14T15:32:58.943Z,5.33
2023-11-14T15:35:47.264Z,3.13
2023-11-14T15:38:35.605Z,3.13
2023-11-14T15:41:25.251Z,1.57
2023-11-14T15:44:15.349Z,1.80
2023-11-14T15:47:04.763Z,2.60
2023-11-14T15:49:52.805Z,3.33
2023-11-14T15:52:40.914Z,2.63
2023-11-14T15:55:29.387Z,4.83
2023-11-14T15:58:18.831Z,3.90
2023-11-14T16:01:06.885Z,5.03
2023-11-14T16:03:55.017Z,5.50
2023-11-14T16:06:43.416Z,4.50
2023-11-14T16:09:31.434Z,5.30
2023-11-14T16:12:19.461Z,5.23
2023-11-14T16:15:10.410Z,4.03
2023-11-14T16:17:58.585Z,9.93
2023-11-14T16:20:47.257Z,5.67
2023-11-14T16:23:36.230Z,6.50
2023-11-14T16:26:24.447Z,6.47
2023-11-14T16:29:12.607Z,8.97
2023-11-14T16:32:02.242Z,8.33
2023-11-14T16:34:50.735Z,5.20
2023-11-14T16:37:38.785Z,5.17
2023-11-14T16:40:26.881Z,4.23
2023-11-14T16:43:15.234Z,5.77
2023-11-14T16:46:03.350Z,5.50
2023-11-14T16:48:52.855Z,9.37
2023-11-14T16:51:40.934Z,6.17
2023-11-14T16:54:28.997Z,8.82
2023-11-14T16:57:17.124Z,8.10
2023-11-14T17:00:08.533Z,8.80
2023-11-14T17:02:56.780Z,7.73
2023-11-14T17:05:46.275Z,10.70
2023-11-14T17:08:34.413Z,7.83
2023-11-14T17:11:22.769Z,6.67
2023-11-14T17:14:11.158Z,9.80
2023-11-14T17:16:59.317Z,8.03
2023-11-14T17:19:47.661Z,9.67
2023-11-14T17:22:37.467Z,8.30
2023-11-14T17:25:26.453Z,8.17
2023-11-14T17:28:15.298Z,8.47
2023-11-14T17:31:03.625Z,10.80
2023-11-14T17:33:53.114Z,6.70
2023-11-14T17:36:41.385Z,5.37
2023-11-14T17:39:32.060Z,5.80
2023-11-14T17:42:20.111Z,6.80
2023-11-14T17:45:10.777Z,6.60
2023-11-14T17:47:59.500Z,7.30
2023-11-14T17:50:47.816Z,7.63
2023-11-14T17:53:36.103Z,7.23
2023-11-14T17:56:25.611Z,7.53
2023-11-14T17:59:13.946Z,5.00
2023-11-14T18:02:02.251Z,10.97
2023-11-14T18:04:50.906Z,9.40
2023-11-14T18:07:39.344Z,5.77
2023-11-14T18:10:27.396Z,6.67
2023-11-14T18:13:18.003Z,5.67
2023-11-14T18:16:10.128Z,4.27
2023-11-14T18:18:59.166Z,5.87
2023-11-14T18:21:48.980Z,4.57
2023-11-14T18:24:37.016Z,3.90
2023-11-14T18:27:25.114Z,3.00
2023-11-14T18:30:15.029Z,3.93
2023-11-14T18:33:03.545Z,3.53
2023-11-14T18:35:54.774Z,2.37
2023-11-14T18:38:44.072Z,3.37
2023-11-14T18:41:32.581Z,2.40
2023-11-14T18:44:20.663Z,2.77
2023-11-14T18:47:10.724Z,3.57
2023-11-14T18:49:58.948Z,2.50
2023-11-14T18:52:47.013Z,1.90
2023-11-14T18:55:35.126Z,1.83
2023-11-14T18:58:23.782Z,1.63
2023-11-14T19:01:12.976Z,2.50
2023-11-14T19:04:02.466Z,2.00
2023-11-14T19:06:50.595Z,2.27
2023-11-14T19:09:38.647Z,2.00
2023-11-14T19:12:26.727Z,1.27
2023-11-14T19:15:14.703Z,1.63
2023-11-14T19:18:02.865Z,1.57
2023-11-14T19:21:20.553Z,3.38
2023-11-14T19:24:00.707Z,2.43
2023-11-14T19:26:48.918Z,2.77
2023-11-14T19:29:37.016Z,1.10
2023-11-14T19:32:25.378Z,1.20
2023-11-14T19:35:13.905Z,2.40
2023-11-14T19:38:03.740Z,2.13
2023-11-14T19:40:51.760Z,1.17
2023-11-14T19:43:39.942Z,2.03
2023-11-14T19:46:28.115Z,1.57
2023-11-14T19:49:16.526Z,1.20
2023-11-14T19:52:05.533Z,1.00
2023-11-14T19:54:55.178Z,1.00
2023-11-14T19:57:43.439Z,1.80
2023-11-14T20:00:34.596Z,1.40
2023-11-14T20:03:23.158Z,1.30
2023-11-14T20:06:11.549Z,1.20
2023-11-14T20:09:00.909Z,2.20
2023-11-14T20:11:50.560Z,0.80
2023-11-14T20:14:38.824Z,1.07
2023-11-14T20:17:27.080Z,1.50
2023-11-14T20:20:15.589Z,1.07
2023-11-14T20:23:05.440Z,1.00
2023-11-14T20:25:53.679Z,2.50
2023-11-14T20:28:43.207Z,1.10
2023-11-14T20:31:31.574Z,2.10
2023-11-14T20:34:20.356Z,0.90
2023-11-14T20:37:08.507Z,0.97
2023-11-14T20:39:57.134Z,0.80
2023-11-14T20:42:46.110Z,0.70
2023-11-14T20:45:35.561Z,0.57
2023-11-14T20:48:24.273Z,0.90
2023-11-14T20:51:21.796Z,0.70
2023-11-14T20:54:15.354Z,1.30
2023-11-14T20:57:03.671Z,1.07
2023-11-14T20:59:52.460Z,1.40
2023-11-14T21:02:42.613Z,1.43
2023-11-14T21:05:31.067Z,0.87
2023-11-14T21:08:21.260Z,0.90
2023-11-14T21:11:09.479Z,0.50
2023-11-14T21:13:57.754Z,0.80
2023-11-14T21:16:46.172Z,0.47
2023-11-14T21:19:35.640Z,0.50
2023-11-14T21:22:23.901Z,0.50
2023-11-14T21:25:12.005Z,0.60
2023-11-14T21:28:00.266Z,1.23
2023-11-14T21:30:53.742Z,0.50
2023-11-14T21:33:45.091Z,0.60
2023-11-14T21:36:34.855Z,0.43
2023-11-14T21:39:22.929Z,2.00
2023-11-14T21:42:11.220Z,0.30
2023-11-14T21:44:59.341Z,0.43
2023-11-14T21:47:47.562Z,0.63
2023-11-14T21:50:35.717Z,0.73
2023-11-14T21:53:25.221Z,0.23
2023-11-14T21:56:14.521Z,0.57
2023-11-14T21:59:02.621Z,0.30
2023-11-14T22:01:51.334Z,0.10
2023-11-14T22:04:39.409Z,0.10
2023-11-14T22:07:27.543Z,0.70
2023-11-14T22:10:17.298Z,0.10
2023-11-14T22:13:06.822Z,0.70
2023-11-14T22:15:54.968Z,0.17
2023-11-14T22:18:43.218Z,0.30
2023-11-14T22:21:31.374Z,0.73
2023-11-14T22:24:19.419Z,0.20
2023-11-14T22:27:09.212Z,0.40
2023-11-14T22:29:58.448Z,0.27
2023-11-14T22:32:46.929Z,0.40
2023-11-14T22:35:35.127Z,0.93
2023-11-14T22:38:23.307Z,0.67
2023-11-14T22:41:14.974Z,0.20
2023-11-14T22:44:04.612Z,0.23
2023-11-14T22:46:53.028Z,0.20
2023-11-14T22:49:41.945Z,1.80
2023-11-14T22:52:30.080Z,0.60
2023-11-14T22:55:18.181Z,1.37
2023-11-14T22:58:06.263Z,0.43
2023-11-14T23:00:56.898Z,1.70
2023-11-14T23:03:46.086Z,0.30
2023-11-14T23:06:35.984Z,0.70
2023-11-14T23:09:24.803Z,0.30
2023-11-14T23:12:13.465Z,0.70
2023-11-14T23:15:01.587Z,0.67
2023-11-14T23:17:51.049Z,0.27
2023-11-14T23:20:40.627Z,0.40
2023-11-14T23:23:29.702Z,1.80
2023-11-14T23:26:18.930Z,0.33
2023-11-14T23:29:07.119Z,0.40
2023-11-14T23:31:57.110Z,1.07
2023-11-14T23:34:46.603Z,0.83
2023-11-14T23:37:34.634Z,0.20
2023-11-14T23:40:24.823Z,0.40
2023-11-14T23:43:13.620Z,0.50
2023-11-14T23:46:01.724Z,0.30
2023-11-14T23:48:49.830Z,1.53
2023-11-14T23:51:39.775Z,1.70
2023-11-14T23:54:30.092Z,0.77
2023-11-14T23:57:18.204Z,0.70
